Time;durP1;ratioP1;P1;durP2;ratioP2;P2;SDS_P1;SDS_P2;PMS_P1;PMS_P2;Temp;Humidity;BMP_temperature;BMP_pressure;BME280_temperature;BME280_humidity;BME280_pressure;Samples;Min_cycle;Max_cycle;Signal;HPM_P1;HPM_P2
2022/04/25 00:02:00;;;;;;;6.55;4.50;;;11.50;55.30;;;;;;4736508;30;20139;-74
2022/04/25 00:04:25;;;;;;;9.18;5.50;;;11.40;55.30;;;;;;4737669;30;20099;-75
2022/04/25 00:06:51;;;;;;;10.32;5.93;;;11.40;55.50;;;;;;4721871;30;20061;-75
2022/04/25 00:09:17;;;;;;;10.07;6.60;;;11.40;56.20;;;;;;4721572;30;20070;-75
2022/04/25 00:11:43;;;;;;;11.35;5.90;;;11.30;56.00;;;;;;4721734;30;20057;-75
2022/04/25 00:14:09;;;;;;;8.50;6.32;;;11.30;56.20;;;;;;4736177;30;20056;-75
2022/04/25 00:16:35;;;;;;;9.00;4.97;;;11.30;56.30;;;;;;4737733;30;20056;-75
2022/04/25 00:19:01;;;;;;;9.00;5.82;;;11.20;56.30;;;;;;4737494;30;20171;-75
2022/04/25 00:21:26;;;;;;;11.23;5.70;;;11.20;56.20;;;;;;4737314;30;20559;-75
2022/04/25 00:23:52;;;;;;;7.03;4.93;;;11.10;56.30;;;;;;4721594;30;20437;-75
2022/04/25 00:26:18;;;;;;;9.45;6.20;;;11.10;56.40;;;;;;4737293;30;20045;-75
2022/04/25 00:28:43;;;;;;;9.07;4.82;;;11.10;56.50;;;;;;4736673;30;20401;-75
2022/04/25 00:31:09;;;;;;;5.85;5.03;;;11.10;56.40;;;;;;4737591;30;20048;-75
2022/04/25 00:33:35;;;;;;;7.57;4.93;;;11.10;56.30;;;;;;4737344;30;20487;-76
2022/04/25 00:36:01;;;;;;;8.43;5.28;;;11.00;56.20;;;;;;4721649;30;20056;-75
2022/04/25 00:38:26;;;;;;;8.10;4.97;;;11.10;56.20;;;;;;4737080;30;20102;-75
2022/04/25 00:40:52;;;;;;;6.50;4.70;;;11.10;56.20;;;;;;4720669;30;20056;-76
2022/04/25 00:43:18;;;;;;;8.30;5.38;;;11.10;56.10;;;;;;4737170;30;20049;-75
2022/04/25 00:45:44;;;;;;;11.13;6.65;;;11.10;56.10;;;;;;4721528;30;20064;-75
2022/04/25 00:48:09;;;;;;;6.50;4.68;;;11.10;56.10;;;;;;4736992;30;20059;-75
2022/04/25 00:50:38;;;;;;;6.72;4.97;;;11.10;56.10;;;;;;4737014;30;20058;-75
2022/04/25 00:53:04;;;;;;;7.32;4.78;;;11.10;56.10;;;;;;4736903;30;20053;-76
2022/04/25 00:55:30;;;;;;;7.57;4.95;;;11.10;56.00;;;;;;4736681;30;20094;-75
2022/04/25 00:57:57;;;;;;;6.28;4.45;;;11.10;56.00;;;;;;4736304;30;20135;-75
2022/04/25 01:00:24;;;;;;;7.63;4.97;;;11.10;56.00;;;;;;4720761;30;20064;-75
2022/04/25 01:02:50;;;;;;;8.50;6.05;;;11.10;56.00;;;;;;4721027;30;20160;-75
2022/04/25 01:05:15;;;;;;;9.98;6.13;;;11.20;56.40;;;;;;4720819;30;20139;-75
2022/04/25 01:07:41;;;;;;;8.18;5.45;;;11.20;56.10;;;;;;4736669;30;20073;-75
2022/04/25 01:10:08;;;;;;;7.78;5.25;;;11.10;56.00;;;;;;4736557;30;20698;-75
2022/04/25 01:12:34;;;;;;;9.02;5.70;;;11.10;56.10;;;;;;4736218;30;20517;-75
2022/04/25 01:15:07;;;;;;;7.82;5.20;;;11.10;56.00;;;;;;4736664;30;20048;-75
2022/04/25 01:17:33;;;;;;;9.57;5.32;;;11.10;56.10;;;;;;4736606;30;20084;-75
2022/04/25 01:19:59;;;;;;;7.10;5.40;;;11.10;56.10;;;;;;4736473;30;20076;-75
2022/04/25 01:22:30;;;;;;;8.40;6.07;;;11.10;56.10;;;;;;4734979;30;20522;-74
2022/04/25 01:27:41;;;;;;;11.65;7.13;;;11.10;56.50;;;;;;4736190;30;20057;-74
2022/04/25 01:30:09;;;;;;;9.95;6.82;;;11.10;56.90;;;;;;4720464;30;20060;-74
2022/04/25 01:32:36;;;;;;;9.70;7.00;;;11.00;57.00;;;;;;4720524;30;20056;-75
2022/04/25 01:35:02;;;;;;;10.63;6.07;;;11.00;57.80;;;;;;4735680;30;20521;-75
2022/04/25 01:37:27;;;;;;;9.15;6.35;;;11.00;57.90;;;;;;4736207;30;20060;-75
2022/04/25 01:39:54;;;;;;;13.90;9.05;;;10.90;57.50;;;;;;4736008;30;20103;-74
2022/04/25 01:42:22;;;;;;;11.15;7.60;;;11.00;58.00;;;;;;4736210;30;20045;-75
2022/04/25 01:44:48;;;;;;;14.27;9.50;;;11.00;58.30;;;;;;4736126;30;20071;-75
2022/04/25 01:47:14;;;;;;;14.90;10.38;;;10.90;59.10;;;;;;4736149;30;20494;-75
2022/04/25 01:49:40;;;;;;;17.52;10.75;;;10.90;59.50;;;;;;4736145;30;20090;-75
2022/04/25 01:52:23;;;;;;;13.27;8.40;;;10.80;60.00;;;;;;4735708;30;20071;-75
2022/04/25 01:54:48;;;;;;;12.10;8.68;;;10.70;60.80;;;;;;4735870;30;20070;-75
2022/04/25 01:57:14;;;;;;;12.23;9.35;;;10.60;60.90;;;;;;4735433;30;20044;-75
2022/04/25 01:59:40;;;;;;;13.80;8.93;;;10.60;61.00;;;;;;4734828;30;20132;-75
2022/04/25 02:02:06;;;;;;;11.57;7.97;;;10.60;61.70;;;;;;4735603;30;20462;-75
2022/04/25 02:04:32;;;;;;;16.63;9.77;;;10.60;61.70;;;;;;4719897;30;20068;-75
2022/04/25 02:06:58;;;;;;;14.32;10.52;;;10.60;62.00;;;;;;4735756;30;20140;-75
2022/04/25 02:09:24;;;;;;;14.65;10.48;;;10.50;62.30;;;;;;4735902;30;20059;-75
2022/04/25 02:11:50;;;;;;;13.15;10.32;;;10.40;62.50;;;;;;4735763;30;20044;-74
2022/04/25 02:14:16;;;;;;;14.00;10.40;;;10.40;62.60;;;;;;4720109;30;20056;-75
2022/04/25 02:16:42;;;;;;;13.85;8.48;;;10.40;63.30;;;;;;4735563;30;20044;-75
2022/04/25 02:19:08;;;;;;;17.33;12.30;;;10.40;63.00;;;;;;4735750;30;20059;-74
2022/04/25 02:21:33;;;;;;;14.90;9.82;;;10.40;63.30;;;;;;4719790;30;20048;-74
2022/04/25 02:23:59;;;;;;;13.77;10.02;;;10.30;63.40;;;;;;4735729;30;20055;-75
2022/04/25 02:26:25;;;;;;;16.45;11.68;;;10.30;63.20;;;;;;4735609;30;20115;-75
2022/04/25 02:28:54;;;;;;;15.45;11.32;;;10.30;63.40;;;;;;4719791;30;20490;-75
2022/04/25 02:31:21;;;;;;;17.15;10.20;;;10.30;63.60;;;;;;4735729;30;20053;-74
2022/04/25 02:33:47;;;;;;;14.55;9.18;;;10.30;63.60;;;;;;4735048;30;20049;-74
2022/04/25 02:36:13;;;;;;;19.20;11.60;;;10.30;63.50;;;;;;4735457;30;20052;-74
2022/04/25 02:38:40;;;;;;;15.77;11.90;;;10.30;63.70;;;;;;4719869;30;20053;-74
2022/04/25 02:41:06;;;;;;;14.70;10.50;;;10.20;64.10;;;;;;4735435;30;20053;-74
2022/04/25 02:43:37;;;;;;;15.77;10.70;;;10.20;64.00;;;;;;4735383;30;20441;-75
2022/04/25 02:46:04;;;;;;;11.48;8.82;;;10.20;64.30;;;;;;4719697;30;20056;-76
2022/04/25 02:48:30;;;;;;;13.02;9.43;;;10.10;64.40;;;;;;4734187;30;20055;-75
2022/04/25 02:50:57;;;;;;;15.65;10.05;;;10.00;63.90;;;;;;4735185;30;20049;-75
2022/04/25 02:53:26;;;;;;;13.85;9.25;;;10.10;64.00;;;;;;4735488;30;20048;-75
2022/04/25 02:55:53;;;;;;;15.40;11.05;;;10.00;63.80;;;;;;4719761;30;20056;-75
2022/04/25 02:58:25;;;;;;;17.65;11.82;;;10.00;63.90;;;;;;4733454;30;20061;-74
2022/04/25 03:00:51;;;;;;;14.90;11.18;;;10.00;64.00;;;;;;4719487;30;20498;-74
2022/04/25 03:03:19;;;;;;;15.98;11.82;;;10.00;64.60;;;;;;4731176;30;20564;-74
2022/04/25 03:05:47;;;;;;;14.32;9.80;;;9.90;64.30;;;;;;4719495;30;20499;-75
2022/04/25 03:08:15;;;;;;;15.10;10.93;;;9.90;64.10;;;;;;4734242;30;20061;-75
2022/04/25 03:10:42;;;;;;;14.68;10.93;;;9.80;64.30;;;;;;4720255;30;20053;-75
2022/04/25 03:13:09;;;;;;;13.15;10.68;;;9.90;64.20;;;;;;4721144;30;20487;-75
2022/04/25 03:15:38;;;;;;;12.90;10.10;;;9.80;64.30;;;;;;4721108;30;20053;-75
2022/04/25 03:18:05;;;;;;;13.43;9.60;;;9.80;64.20;;;;;;4719889;30;20061;-76
2022/04/25 03:20:31;;;;;;;19.30;12.23;;;9.80;64.20;;;;;;4720850;30;20407;-74
2022/04/25 03:22:58;;;;;;;17.30;11.45;;;9.80;64.40;;;;;;4720846;30;20056;-74
2022/04/25 03:25:23;;;;;;;13.60;10.27;;;9.80;64.50;;;;;;4720648;30;20064;-74
2022/04/25 03:27:50;;;;;;;15.43;11.45;;;9.80;64.90;;;;;;4719471;30;20486;-74
2022/04/25 03:30:16;;;;;;;17.13;12.48;;;9.70;64.70;;;;;;4721018;30;20075;-73
2022/04/25 03:32:45;;;;;;;14.13;9.75;;;9.70;65.00;;;;;;4720938;30;20487;-74
2022/04/25 03:35:16;;;;;;;15.75;11.82;;;9.70;65.10;;;;;;4720800;30;20123;-74
2022/04/25 03:37:42;;;;;;;16.95;11.35;;;9.70;65.40;;;;;;4720466;30;20096;-74
2022/04/25 03:40:11;;;;;;;19.35;11.50;;;9.60;65.50;;;;;;4719537;30;20061;-74
2022/04/25 03:42:38;;;;;;;15.18;11.23;;;9.60;65.60;;;;;;4720686;30;20076;-74
2022/04/25 03:45:05;;;;;;;16.60;12.48;;;9.60;65.80;;;;;;4719694;30;20119;-74
2022/04/25 03:47:32;;;;;;;15.23;10.85;;;9.50;65.70;;;;;;4719360;30;20096;-73
2022/04/25 03:49:58;;;;;;;14.55;11.05;;;9.50;65.80;;;;;;4720176;30;20091;-74
2022/04/25 03:52:24;;;;;;;15.40;11.05;;;9.50;66.20;;;;;;4720383;30;20099;-74
2022/04/25 03:57:34;;;;;;;17.42;11.20;;;9.40;66.20;;;;;;4733438;30;20053;-74
2022/04/25 03:59:59;;;;;;;14.98;11.43;;;9.40;66.40;;;;;;4720282;30;20122;-75
2022/04/25 04:02:25;;;;;;;16.67;10.90;;;9.40;66.20;;;;;;4718635;30;20060;-75
2022/04/25 04:04:51;;;;;;;13.98;9.98;;;9.40;66.40;;;;;;4734262;30;20145;-75
2022/04/25 04:07:16;;;;;;;20.30;10.70;;;9.40;66.30;;;;;;4737731;30;20403;-74
2022/04/25 04:09:45;;;;;;;16.63;10.98;;;9.40;66.50;;;;;;4737167;30;20052;-74
2022/04/25 04:12:11;;;;;;;15.43;10.63;;;9.50;66.60;;;;;;4737543;30;20426;-74
2022/04/25 04:14:37;;;;;;;16.42;10.68;;;9.40;66.90;;;;;;4737472;30;20100;-74
2022/04/25 04:17:06;;;;;;;16.67;11.73;;;9.40;66.50;;;;;;4720368;30;20096;-74
2022/04/25 04:19:32;;;;;;;14.55;10.63;;;9.50;66.60;;;;;;4736024;30;20059;-75
2022/04/25 04:21:57;;;;;;;16.38;10.68;;;9.40;66.50;;;;;;4737390;30;20057;-75
2022/04/25 04:24:23;;;;;;;16.52;12.20;;;9.50;66.60;;;;;;4737474;30;20076;-75
2022/04/25 04:26:49;;;;;;;17.42;12.25;;;9.50;67.10;;;;;;4737420;30;20414;-75
2022/04/25 04:29:14;;;;;;;14.70;11.18;;;9.50;66.80;;;;;;4737377;30;20126;-75
2022/04/25 04:31:40;;;;;;;15.82;10.93;;;9.50;66.70;;;;;;4737247;30;20045;-75
2022/04/25 04:34:05;;;;;;;13.48;10.05;;;9.50;66.90;;;;;;4721462;30;20056;-75
2022/04/25 04:36:31;;;;;;;15.15;10.90;;;9.40;66.70;;;;;;4736974;30;20051;-75
2022/04/25 04:38:57;;;;;;;17.42;10.40;;;9.50;66.80;;;;;;4721436;30;20056;-75
2022/04/25 04:41:22;;;;;;;12.77;9.80;;;9.50;66.70;;;;;;4737093;30;20402;-75
2022/04/25 04:43:48;;;;;;;15.63;9.88;;;9.40;66.60;;;;;;4736908;30;20075;-74
2022/04/25 04:46:14;;;;;;;15.30;10.80;;;9.30;66.50;;;;;;4737130;30;20073;-73
2022/04/25 04:48:40;;;;;;;16.20;10.50;;;9.40;66.60;;;;;;4721441;30;20410;-74
2022/04/25 04:51:06;;;;;;;15.98;10.55;;;9.30;66.40;;;;;;4721006;30;20437;-74
2022/04/25 04:53:32;;;;;;;15.73;10.20;;;9.30;66.50;;;;;;4736704;30;20056;-74
2022/04/25 04:55:59;;;;;;;13.65;10.50;;;9.30;66.50;;;;;;4736912;30;20053;-73
2022/04/25 04:58:25;;;;;;;15.93;10.43;;;9.20;66.40;;;;;;4736511;30;20044;-74
2022/04/25 05:00:50;;;;;;;17.83;10.40;;;9.30;66.50;;;;;;4736091;30;20443;-73
2022/04/25 05:03:16;;;;;;;16.25;10.88;;;9.30;66.60;;;;;;4736593;30;20067;-74
2022/04/25 05:05:43;;;;;;;18.75;10.93;;;9.20;66.60;;;;;;4735359;30;20052;-74
2022/04/25 05:08:09;;;;;;;13.23;9.50;;;9.20;66.70;;;;;;4736624;30;20166;-74
2022/04/25 05:10:34;;;;;;;17.05;11.20;;;9.20;66.80;;;;;;4736579;30;20492;-74
2022/04/25 05:13:00;;;;;;;15.48;11.60;;;9.20;66.80;;;;;;4720915;30;20433;-74
2022/04/25 05:15:25;;;;;;;18.02;10.68;;;9.20;66.60;;;;;;4736182;30;20406;-74
2022/04/25 05:17:53;;;;;;;15.18;9.98;;;9.20;66.70;;;;;;4736450;30;20525;-74
2022/04/25 05:20:22;;;;;;;16.75;11.52;;;9.20;66.70;;;;;;4736432;30;20130;-75
2022/04/25 05:22:49;;;;;;;15.90;11.25;;;9.20;66.80;;;;;;4735111;30;20061;-74
2022/04/25 05:25:16;;;;;;;16.42;11.63;;;9.20;66.80;;;;;;4736517;30;20049;-74
2022/04/25 05:27:47;;;;;;;15.73;11.02;;;9.20;66.80;;;;;;4736021;30;20447;-74
2022/04/25 05:30:14;;;;;;;18.95;11.85;;;9.20;67.00;;;;;;4720493;30;20075;-74
2022/04/25 05:32:54;;;;;;;16.90;11.85;;;9.20;67.00;;;;;;4720719;30;20060;-74
2022/04/25 05:35:22;;;;;;;16.42;11.07;;;9.20;66.90;;;;;;4720070;30;20052;-74
2022/04/25 05:37:48;;;;;;;16.38;10.80;;;9.10;67.00;;;;;;4736200;30;20064;-74
2022/04/25 05:40:16;;;;;;;16.75;11.55;;;9.10;67.20;;;;;;4736086;30;20128;-73
2022/04/25 05:42:43;;;;;;;17.02;11.63;;;9.10;67.20;;;;;;4720113;30;20103;-74
2022/04/25 05:45:10;;;;;;;13.93;11.40;;;9.10;67.40;;;;;;4719940;30;20048;-75
2022/04/25 05:47:37;;;;;;;18.75;11.77;;;9.10;67.40;;;;;;4736025;30;20044;-75
2022/04/25 05:52:49;;;;;;;18.27;11.40;;;9.20;67.40;;;;;;4735992;30;20131;-75
2022/04/25 05:55:15;;;;;;;18.30;11.75;;;9.20;67.30;;;;;;4720331;30;20591;-75
2022/04/25 05:57:40;;;;;;;18.20;11.98;;;9.20;67.30;;;;;;4735294;30;20052;-75
2022/04/25 06:00:08;;;;;;;15.63;10.50;;;9.20;67.30;;;;;;4735990;30;20118;-74
2022/04/25 06:02:38;;;;;;;15.20;10.55;;;9.20;67.20;;;;;;4735835;30;20098;-74
2022/04/25 06:05:05;;;;;;;15.52;10.02;;;9.20;67.20;;;;;;4735519;30;20068;-75
2022/04/25 06:07:31;;;;;;;15.98;10.88;;;9.20;67.30;;;;;;4735781;30;20497;-73
2022/04/25 06:09:57;;;;;;;15.20;11.13;;;9.20;67.10;;;;;;4735708;30;20079;-73
2022/04/25 06:12:23;;;;;;;15.88;10.70;;;9.20;67.00;;;;;;4735705;30;20536;-73
2022/04/25 06:14:48;;;;;;;17.75;10.65;;;9.20;66.90;;;;;;4719863;30;20152;-74
2022/04/25 06:17:15;;;;;;;14.90;9.80;;;9.20;66.70;;;;;;4735778;30;20429;-73
2022/04/25 06:19:41;;;;;;;14.27;10.10;;;9.20;66.60;;;;;;4735549;30;20088;-75
2022/04/25 06:22:09;;;;;;;15.30;10.25;;;9.10;66.40;;;;;;4735107;30;20064;-75
2022/04/25 06:24:35;;;;;;;14.07;9.60;;;9.10;66.40;;;;;;4720061;30;20474;-75
2022/04/25 06:27:03;;;;;;;14.57;9.65;;;9.10;66.20;;;;;;4735442;30;20132;-74
2022/04/25 06:29:29;;;;;;;14.45;9.98;;;9.10;66.20;;;;;;4735433;30;20490;-75
2022/04/25 06:31:55;;;;;;;18.17;10.10;;;9.10;66.50;;;;;;4719656;30;20501;-74
2022/04/25 06:34:21;;;;;;;12.02;9.50;;;9.00;66.40;;;;;;4735710;30;20420;-73
2022/04/25 06:36:50;;;;;;;13.57;8.77;;;9.00;66.40;;;;;;4735542;30;20049;-73
2022/04/25 06:39:16;;;;;;;15.43;9.60;;;9.00;66.40;;;;;;4737371;30;20510;-72
2022/04/25 06:41:42;;;;;;;12.80;9.40;;;9.00;66.50;;;;;;4741141;30;20430;-73
2022/04/25 06:44:07;;;;;;;13.50;9.02;;;8.90;66.50;;;;;;4741077;30;20106;-72
2022/04/25 06:46:33;;;;;;;36.50;24.52;;;8.90;66.60;;;;;;4741056;30;20053;-74
2022/04/25 06:51:42;;;;;;;16.38;9.90;;;9.00;67.00;;;;;;4740349;30;20096;-75
2022/04/25 06:54:08;;;;;;;14.13;9.40;;;8.90;67.10;;;;;;4741191;30;20078;-73
2022/04/25 06:56:35;;;;;;;17.95;9.80;;;9.00;66.90;;;;;;4725132;30;20048;-73
2022/04/25 06:59:01;;;;;;;12.88;8.90;;;9.00;67.00;;;;;;4740606;30;20048;-75
2022/04/25 07:01:26;;;;;;;13.93;9.30;;;9.00;66.80;;;;;;4725360;30;20048;-74
2022/04/25 07:03:52;;;;;;;14.10;9.63;;;9.00;66.80;;;;;;4741035;30;20084;-74
2022/04/25 07:06:18;;;;;;;11.70;9.30;;;9.00;66.70;;;;;;4739805;30;20087;-74
2022/04/25 07:08:43;;;;;;;17.00;10.75;;;9.00;66.60;;;;;;4741094;30;20048;-76
2022/04/25 07:11:09;;;;;;;12.43;10.15;;;9.00;66.60;;;;;;4741138;30;20052;-75
2022/04/25 07:13:35;;;;;;;13.77;9.93;;;9.10;66.50;;;;;;4740525;30;20052;-80
2022/04/25 07:16:01;;;;;;;11.40;9.15;;;9.10;66.50;;;;;;4741190;30;20041;-73
2022/04/25 07:18:26;;;;;;;13.27;10.13;;;9.10;66.40;;;;;;4741034;30;20045;-77
2022/04/25 07:20:52;;;;;;;17.35;10.90;;;9.10;66.10;;;;;;4725243;30;20095;-75
2022/04/25 07:28:49;;;;;;;17.73;12.15;;;9.20;66.00;;;;;;4739610;30;20061;-75
2022/04/25 07:31:15;;;;;;;11.73;9.25;;;9.20;65.80;;;;;;4725055;30;20056;-76
2022/04/25 07:33:43;;;;;;;16.50;10.40;;;9.20;65.80;;;;;;4740873;30;20145;-73
2022/04/25 07:36:09;;;;;;;12.65;9.35;;;9.10;65.70;;;;;;4740944;30;20505;-76
2022/04/25 07:38:36;;;;;;;16.38;10.18;;;9.30;65.80;;;;;;4724688;30;20052;-75
2022/04/25 07:41:02;;;;;;;14.13;9.32;;;9.30;66.00;;;;;;4724759;30;20060;-76
2022/04/25 07:43:30;;;;;;;12.07;9.27;;;9.30;66.00;;;;;;4740954;30;20452;-75
2022/04/25 07:45:56;;;;;;;13.02;9.32;;;9.30;65.90;;;;;;4740257;30;20138;-75
2022/04/25 07:48:22;;;;;;;14.70;9.35;;;9.30;65.70;;;;;;4740853;30;20084;-75
2022/04/25 07:50:48;;;;;;;15.73;9.02;;;9.30;65.70;;;;;;4739346;30;20060;-75
2022/04/25 07:53:14;;;;;;;12.80;8.95;;;9.30;65.70;;;;;;4736557;30;20103;-75
2022/04/25 07:55:39;;;;;;;13.50;8.65;;;9.40;65.70;;;;;;4737802;30;20056;-75
2022/04/25 07:58:08;;;;;;;11.60;9.00;;;9.40;65.70;;;;;;4737653;30;20045;-74
2022/04/25 08:00:40;;;;;;;14.02;8.98;;;9.40;65.70;;;;;;4737535;30;20052;-74
2022/04/25 08:03:06;;;;;;;13.80;9.15;;;9.40;65.70;;;;;;4737531;30;20052;-72
2022/04/25 08:05:32;;;;;;;12.50;8.77;;;9.40;65.80;;;;;;4736655;30;20052;-72
2022/04/25 08:07:58;;;;;;;11.07;7.55;;;9.50;65.90;;;;;;4721842;30;20060;-73
2022/04/25 08:10:23;;;;;;;13.38;8.50;;;9.50;65.70;;;;;;4737517;30;20063;-73
2022/04/25 08:18:17;;;;;;;10.50;7.32;;;9.50;65.30;;;;;;4736189;30;20151;-76
2022/04/25 08:20:43;;;;;;;10.48;8.00;;;9.50;65.30;;;;;;4737247;30;20132;-74
2022/04/25 08:23:11;;;;;;;11.73;7.90;;;9.50;65.40;;;;;;4721408;30;20052;-74
2022/04/25 08:25:38;;;;;;;12.38;8.30;;;9.50;65.80;;;;;;4737475;30;20052;-75
2022/04/25 08:28:07;;;;;;;11.15;7.40;;;9.50;66.20;;;;;;4737224;30;20087;-74
2022/04/25 08:30:33;;;;;;;13.48;8.07;;;9.50;66.40;;;;;;4721609;30;20490;-75
2022/04/25 08:33:00;;;;;;;13.40;8.85;;;9.60;66.60;;;;;;4721795;30;20055;-74
2022/04/25 08:35:26;;;;;;;13.10;8.63;;;9.60;66.60;;;;;;4721592;30;20052;-74
2022/04/25 08:37:54;;;;;;;11.15;7.53;;;9.60;66.60;;;;;;4721300;30;20052;-74
2022/04/25 08:40:20;;;;;;;14.27;8.60;;;9.60;66.50;;;;;;4737197;30;20053;-74
2022/04/25 08:42:46;;;;;;;12.55;8.45;;;9.60;66.40;;;;;;4737013;30;20080;-75
2022/04/25 08:45:13;;;;;;;24.50;15.90;;;9.60;66.40;;;;;;4736477;30;20506;-75
2022/04/25 08:47:53;;;;;;;13.48;8.63;;;9.60;66.30;;;;;;4736827;30;20395;-75
2022/04/25 08:50:19;;;;;;;13.63;8.00;;;9.60;66.40;;;;;;4736911;30;20167;-75
2022/04/25 08:52:46;;;;;;;14.80;8.85;;;9.60;66.50;;;;;;4721144;30;20087;-75
2022/04/25 08:55:13;;;;;;;14.07;7.95;;;9.60;66.60;;;;;;4735759;30;20051;-76
2022/04/25 08:57:40;;;;;;;9.75;7.15;;;9.60;66.50;;;;;;4720355;30;20053;-75
2022/04/25 09:00:07;;;;;;;14.65;8.90;;;9.60;66.30;;;;;;4736758;30;20431;-75
2022/04/25 09:02:34;;;;;;;11.68;7.82;;;9.60;66.30;;;;;;4736324;30;20052;-75
2022/04/25 09:05:01;;;;;;;16.42;9.02;;;9.50;66.40;;;;;;4736383;30;20064;-75
2022/04/25 09:07:27;;;;;;;11.55;7.80;;;9.60;66.70;;;;;;4720893;30;20056;-75
2022/04/25 09:09:54;;;;;;;13.43;9.32;;;9.60;66.70;;;;;;4717815;30;20202;-75
2022/04/25 09:12:20;;;;;;;13.63;8.73;;;9.60;66.80;;;;;;4719156;30;20053;-76
2022/04/25 09:14:46;;;;;;;14.07;8.80;;;9.70;67.00;;;;;;4719137;30;20057;-76
2022/04/25 09:17:12;;;;;;;12.55;8.30;;;9.70;67.10;;;;;;4718940;30;20051;-76
2022/04/25 09:19:39;;;;;;;14.35;9.82;;;9.70;67.10;;;;;;4703185;30;20060;-76
2022/04/25 09:22:10;;;;;;;15.45;12.23;;;9.70;66.90;;;;;;4719159;30;20049;-76
2022/04/25 09:24:46;;;;;;;13.15;9.73;;;9.70;66.90;;;;;;4703339;30;20061;-77
2022/04/25 09:27:14;;;;;;;9.95;7.80;;;9.80;66.70;;;;;;4717848;30;20057;-74
2022/04/25 09:29:40;;;;;;;11.55;8.73;;;9.80;66.40;;;;;;4717662;30;20396;-74
2022/04/25 09:32:09;;;;;;;13.40;8.63;;;9.80;66.30;;;;;;4724107;30;20057;-74
2022/04/25 09:37:45;;;;;;;11.68;7.00;;;9.90;66.20;;;;;;4736069;30;20394;-73
2022/04/25 09:40:12;;;;;;;13.43;7.72;;;9.90;66.00;;;;;;4735875;30;20048;-74
2022/04/25 09:42:38;;;;;;;13.82;8.13;;;9.90;66.10;;;;;;4735887;30;20151;-74
2022/04/25 09:45:05;;;;;;;14.85;9.15;;;9.80;66.10;;;;;;4736263;30;20408;-74
2022/04/25 09:47:33;;;;;;;11.98;8.45;;;9.90;66.10;;;;;;4736333;30;20084;-73
2022/04/25 09:50:10;;;;;;;13.25;9.38;;;9.80;66.00;;;;;;4720524;30;20436;-74
2022/04/25 09:52:57;;;;;;;16.70;9.52;;;9.90;66.10;;;;;;4736057;30;20060;-75
2022/04/25 09:55:31;;;;;;;13.30;9.05;;;9.80;66.10;;;;;;4734152;30;20545;-73
2022/04/25 09:57:57;;;;;;;14.98;9.10;;;9.80;66.10;;;;;;4735654;30;20490;-75
2022/04/25 10:00:33;;;;;;;20.40;9.93;;;9.80;65.90;;;;;;4720298;30;20057;-74
2022/04/25 10:03:00;;;;;;;16.67;9.65;;;9.80;66.00;;;;;;4733805;30;20102;-75
2022/04/25 10:05:46;;;;;;;15.13;10.00;;;9.80;65.90;;;;;;4735585;30;20490;-74
2022/04/25 10:08:22;;;;;;;12.77;8.85;;;9.80;66.00;;;;;;4735629;30;20084;-74
2022/04/25 10:10:50;;;;;;;16.63;9.75;;;9.80;66.10;;;;;;4735739;30;20072;-74
2022/04/25 10:13:16;;;;;;;14.77;10.05;;;9.80;66.10;;;;;;4735211;30;20055;-74
2022/04/25 10:15:44;;;;;;;15.77;10.95;;;9.80;66.20;;;;;;4735319;30;20048;-74
2022/04/25 10:18:10;;;;;;;16.30;9.85;;;9.80;66.40;;;;;;4719347;30;20152;-73
2022/04/25 10:20:37;;;;;;;17.30;10.57;;;9.80;66.10;;;;;;4735371;30;20049;-73
2022/04/25 10:23:04;;;;;;;16.05;10.70;;;9.80;66.20;;;;;;4735487;30;20087;-72
2022/04/25 10:25:31;;;;;;;17.02;11.40;;;9.80;66.20;;;;;;4719662;30;20557;-71
2022/04/25 10:27:59;;;;;;;25.50;14.35;;;9.80;66.40;;;;;;4735412;30;20063;-73
2022/04/25 10:30:32;;;;;;;15.88;10.55;;;9.80;66.50;;;;;;4719480;30;20401;-74
2022/04/25 10:33:15;;;;;;;12.10;9.13;;;9.90;66.60;;;;;;4735117;30;20104;-76
2022/04/25 10:35:41;;;;;;;11.98;8.57;;;9.90;66.40;;;;;;4735520;30;20049;-74
2022/04/25 10:38:48;;;;;;;11.82;8.20;;;9.90;66.30;;;;;;4735634;30;20087;-74
2022/04/25 10:44:16;;;;;;;11.05;7.90;;;10.00;65.90;;;;;;4698581;30;20049;-75
2022/04/25 10:47:03;;;;;;;11.75;7.85;;;10.00;65.90;;;;;;4698179;30;20053;-74
2022/04/25 10:49:58;;;;;;;13.95;7.22;;;10.00;65.80;;;;;;4684185;30;20065;-74
2022/04/25 10:52:37;;;;;;;9.25;6.95;;;10.10;65.30;;;;;;4698551;30;20080;-75
2022/04/25 10:55:20;;;;;;;9.95;6.35;;;10.10;65.30;;;;;;4698478;30;20155;-75
2022/04/25 10:58:03;;;;;;;11.15;7.40;;;10.20;64.80;;;;;;4697883;30;20081;-73
2022/04/25 11:00:41;;;;;;;9.85;6.93;;;10.20;65.00;;;;;;4698563;30;20060;-74
2022/04/25 11:03:12;;;;;;;11.00;6.82;;;10.20;65.00;;;;;;4698198;30;20495;-74
2022/04/25 11:05:40;;;;;;;11.25;6.43;;;10.30;65.30;;;;;;4698441;30;20427;-74
2022/04/25 11:08:18;;;;;;;10.57;6.55;;;10.40;65.20;;;;;;4683973;30;20085;-75
2022/04/25 11:11:00;;;;;;;11.40;7.03;;;10.50;65.10;;;;;;4697919;30;20052;-79
2022/04/25 11:13:29;;;;;;;9.85;5.80;;;10.50;65.60;;;;;;4683908;30;20068;-75
2022/04/25 11:16:13;;;;;;;9.30;6.00;;;10.70;65.20;;;;;;4728912;30;20072;-75
2022/04/25 11:18:41;;;;;;;10.88;6.45;;;10.80;64.40;;;;;;4735003;30;20049;-73
2022/04/25 11:21:16;;;;;;;10.90;7.38;;;10.90;64.20;;;;;;4735012;30;20049;-73
2022/04/25 11:23:44;;;;;;;10.20;6.47;;;10.90;64.40;;;;;;4734942;30;20053;-74
2022/04/25 11:26:22;;;;;;;10.68;6.43;;;11.00;64.20;;;;;;4736868;30;20059;-74
2022/04/25 11:31:23;;;;;;;;;;;11.30;63.80;;;;;;4738731;30;20390;-75
2022/04/25 11:33:51;;;;;;;11.23;5.95;;;11.40;62.60;;;;;;4738208;30;20386;-76
2022/04/25 11:36:21;;;;;;;11.73;6.40;;;11.50;62.60;;;;;;4738235;30;20056;-76
2022/04/25 11:41:34;;;;;;;10.20;6.70;;;11.60;62.60;;;;;;4736796;30;20064;-76
2022/04/25 11:44:00;;;;;;;12.13;7.20;;;11.70;62.30;;;;;;4738430;30;20055;-76
2022/04/25 11:46:27;;;;;;;20.95;15.57;;;11.70;62.00;;;;;;4737984;30;20386;-75
2022/04/25 11:48:54;;;;;;;13.80;10.02;;;11.80;61.80;;;;;;4738095;30;20095;-77
2022/04/25 11:51:24;;;;;;;8.90;6.38;;;11.90;62.30;;;;;;4738177;30;20091;-76
2022/04/25 11:53:53;;;;;;;14.00;7.57;;;12.00;61.90;;;;;;4722532;30;20044;-76
2022/04/25 11:56:19;;;;;;;10.02;7.53;;;12.10;62.60;;;;;;4721738;30;20440;-77
2022/04/25 11:58:44;;;;;;;11.52;7.25;;;12.20;62.20;;;;;;4722151;30;20412;-76
2022/04/25 12:01:10;;;;;;;10.75;6.53;;;12.30;61.70;;;;;;4737610;30;20049;-76
2022/04/25 12:03:36;;;;;;;9.98;6.53;;;12.40;61.40;;;;;;4737523;30;20048;-76
2022/04/25 12:06:11;;;;;;;9.52;6.68;;;12.50;61.30;;;;;;4737281;30;20092;-76
2022/04/25 12:16:50;;;;;;;9.27;6.53;;;12.90;59.60;;;;;;4737629;30;20064;-75
2022/04/25 12:19:17;;;;;;;9.00;6.38;;;12.90;59.60;;;;;;4737536;30;20056;-75
2022/04/25 12:21:47;;;;;;;11.73;6.85;;;13.00;59.50;;;;;;4737467;30;20061;-76
2022/04/25 12:24:21;;;;;;;9.25;7.00;;;13.10;59.50;;;;;;4737439;30;20048;-76
2022/04/25 12:26:47;;;;;;;9.35;6.72;;;13.10;59.60;;;;;;4721534;30;20055;-76
2022/04/25 12:29:13;;;;;;;9.77;6.75;;;13.20;58.90;;;;;;4737525;30;20049;-76
2022/04/25 12:31:46;;;;;;;13.20;7.28;;;13.20;58.90;;;;;;4721119;30;20131;-76
2022/04/25 12:34:12;;;;;;;16.13;7.70;;;13.20;58.80;;;;;;4721798;30;20552;-75
2022/04/25 12:36:39;;;;;;;13.80;7.43;;;13.40;58.30;;;;;;4736409;30;20056;-78
2022/04/25 12:39:14;;;;;;;10.40;7.05;;;13.30;58.40;;;;;;4721226;30;20063;-76
2022/04/25 12:41:57;;;;;;;13.05;6.38;;;13.40;59.10;;;;;;4737090;30;20053;-75
2022/04/25 12:44:24;;;;;;;10.27;7.18;;;13.50;58.70;;;;;;4737110;30;20052;-77
2022/04/25 12:46:59;;;;;;;9.93;7.70;;;13.50;58.80;;;;;;4737117;30;20041;-77
2022/04/25 12:49:36;;;;;;;8.98;7.05;;;13.60;58.40;;;;;;4736977;30;20431;-76
2022/04/25 12:52:05;;;;;;;13.35;7.63;;;13.60;57.80;;;;;;4737185;30;20079;-74
2022/04/25 12:54:43;;;;;;;10.13;8.35;;;13.60;58.50;;;;;;4737060;30;20048;-75
2022/04/25 12:57:22;;;;;;;11.05;7.88;;;13.60;58.10;;;;;;4720443;30;20052;-74
2022/04/25 12:59:53;;;;;;;10.38;8.20;;;13.60;57.70;;;;;;4721348;30;20083;-74
2022/04/25 13:02:37;;;;;;;12.68;8.30;;;13.60;58.20;;;;;;4721061;30;20406;-75
2022/04/25 13:05:13;;;;;;;10.40;8.03;;;13.70;58.20;;;;;;4736597;30;20477;-75
2022/04/25 13:07:40;;;;;;;10.93;8.38;;;13.70;58.10;;;;;;4736848;30;20310;-76
2022/04/25 13:10:08;;;;;;;11.32;8.23;;;13.80;57.90;;;;;;4736708;30;20060;-76
2022/04/25 13:12:45;;;;;;;10.13;7.80;;;13.80;58.10;;;;;;4736109;30;20049;-76
2022/04/25 13:15:17;;;;;;;11.52;8.02;;;13.90;57.90;;;;;;4736693;30;20048;-75
2022/04/25 13:17:43;;;;;;;11.75;8.25;;;14.00;57.30;;;;;;4736547;30;20095;-75
2022/04/25 13:20:12;;;;;;;9.93;7.90;;;14.00;57.40;;;;;;4736273;30;20049;-75
2022/04/25 13:22:38;;;;;;;9.95;8.02;;;14.20;57.20;;;;;;4734923;30;20061;-76
2022/04/25 13:25:06;;;;;;;9.63;7.97;;;14.10;56.90;;;;;;4736430;30;20153;-75
2022/04/25 13:27:32;;;;;;;10.55;8.20;;;14.20;56.90;;;;;;4736213;30;20430;-77